Time;durP1;ratioP1;P1;durP2;ratioP2;P2;SDS_P1;SDS_P2;PMS_P1;PMS_P2;Temp;Humidity;BMP_temperature;BMP_pressure;BME280_temperature;BME280_humidity;BME280_pressure;Samples;Min_cycle;Max_cycle;Signal;HPM_P1;HPM_P2
2022/11/04 00:04:53;;;;;;;3.00;1.80;;;;;;;10.93;69.34;98643.19;10271107;28;20039;-61
2022/11/04 00:09:55;;;;;;;3.35;1.85;;;;;;;10.93;69.44;98658.88;10274324;28;20279;-61
2022/11/04 00:17:18;;;;;;;3.05;2.03;;;;;;;10.78;69.89;98675.81;10277678;28;20058;-61
2022/11/04 00:36:22;;;;;;;6.25;2.22;;;;;;;10.50;70.54;98704.13;10276368;28;20381;-61
2022/11/04 00:41:28;;;;;;;3.28;1.77;;;;;;;10.54;70.62;98732.66;10269337;28;20172;-60
2022/11/04 00:46:32;;;;;;;5.43;2.00;;;;;;;10.52;70.46;98714.50;10271561;28;20083;-61
2022/11/04 00:51:34;;;;;;;5.63;2.00;;;;;;;10.43;70.63;98721.25;10275706;28;20049;-61
2022/11/04 00:56:39;;;;;;;4.38;2.10;;;;;;;10.40;70.61;98720.66;10269560;28;20042;-61
2022/11/04 01:01:41;;;;;;;4.65;1.80;;;;;;;10.24;70.97;98714.97;10268526;28;20054;-61
2022/11/04 01:06:43;;;;;;;3.97;1.90;;;;;;;10.22;70.94;98728.16;10269390;28;20443;-61
2022/11/04 01:11:45;;;;;;;3.25;1.90;;;;;;;10.17;70.70;98745.13;10276517;28;20047;-61
2022/11/04 01:16:50;;;;;;;4.32;1.77;;;;;;;10.11;70.89;98743.00;10282739;28;20054;-61
2022/11/04 01:21:52;;;;;;;2.67;1.63;;;;;;;9.96;71.08;98746.75;10270580;28;20058;-61
2022/11/04 01:26:53;;;;;;;3.08;1.58;;;;;;;9.81;71.16;98743.53;10273644;28;20083;-61
2022/11/04 01:31:55;;;;;;;4.97;2.05;;;;;;;9.75;71.08;98764.06;10267082;28;20519;-61
2022/11/04 01:36:57;;;;;;;5.25;1.48;;;;;;;9.65;71.05;98769.91;10269425;28;20241;-61
2022/11/04 01:41:58;;;;;;;3.17;1.70;;;;;;;9.62;70.80;98770.16;10268400;28;20434;-61
2022/11/04 01:47:00;;;;;;;3.50;1.52;;;;;;;9.55;70.77;98774.16;10263497;28;20042;-61
2022/11/04 01:52:08;;;;;;;3.72;1.40;;;;;;;9.43;70.87;98769.84;10262247;28;20415;-61
2022/11/04 01:57:17;;;;;;;3.42;1.60;;;;;;;9.39;70.89;98763.19;10267220;28;20174;-61
2022/11/04 02:02:18;;;;;;;3.50;1.40;;;;;;;9.39;70.73;98776.22;10265590;28;20051;-62
2022/11/04 02:07:20;;;;;;;4.13;1.60;;;;;;;9.38;70.79;98769.34;10267159;28;20055;-61
2022/11/04 02:17:58;;;;;;;3.63;1.67;;;;;;;9.21;70.51;98751.50;10267235;28;20058;-61
2022/11/04 02:23:21;;;;;;;3.67;1.50;;;;;;;9.24;70.25;98755.66;10274358;28;20819;-61
2022/11/04 02:29:11;;;;;;;3.78;1.50;;;;;;;9.21;69.84;98746.28;10262306;28;20427;-62
2022/11/04 02:34:31;;;;;;;4.20;1.50;;;;;;;9.15;69.50;98762.38;10258582;28;20074;-62
2022/11/04 02:39:54;;;;;;;6.18;1.67;;;;;;;9.06;69.44;98763.00;10268019;28;20065;-61
2022/11/04 02:45:09;;;;;;;2.95;1.40;;;;;;;9.23;69.40;98761.81;10264199;28;20899;-61
2022/11/04 02:50:22;;;;;;;4.43;1.30;;;;;;;9.07;68.91;98771.69;10264264;28;20185;-61
2022/11/04 02:55:44;;;;;;;2.13;1.10;;;;;;;9.05;68.08;98774.41;10268942;28;20715;-61
2022/11/04 03:00:47;;;;;;;3.42;1.20;;;;;;;9.10;68.32;98777.50;10288548;28;20062;-61
2022/11/04 03:05:53;;;;;;;3.40;1.30;;;;;;;8.94;68.41;98781.31;10293002;28;20101;-61
2022/11/04 03:11:10;;;;;;;5.93;1.40;;;;;;;8.95;68.22;98772.56;10270713;28;20181;-62
2022/11/04 03:16:20;;;;;;;2.58;1.30;;;;;;;8.92;68.45;98784.03;10269990;28;20050;-60
2022/11/04 03:21:25;;;;;;;1.95;1.30;;;;;;;8.91;68.32;98786.75;10294933;28;20066;-61
2022/11/04 03:26:38;;;;;;;5.60;1.50;;;;;;;8.91;68.47;98786.75;10284026;28;20073;-61
2022/11/04 03:31:45;;;;;;;3.40;1.30;;;;;;;8.77;68.41;98795.56;10282860;28;20047;-61
2022/11/04 03:36:47;;;;;;;8.02;1.63;;;;;;;8.78;68.33;98787.63;10279519;28;20051;-61
2022/11/04 03:41:55;;;;;;;4.40;1.50;;;;;;;8.77;68.31;98806.00;10275522;28;20050;-61
2022/11/04 03:46:57;;;;;;;3.83;1.50;;;;;;;8.70;68.27;98805.59;10280260;28;20047;-61
2022/11/04 03:51:58;;;;;;;5.35;1.50;;;;;;;8.64;68.41;98811.22;10285444;28;20053;-61
2022/11/04 03:57:03;;;;;;;7.57;1.60;;;;;;;8.59;68.37;98818.50;10279589;28;20043;-61
2022/11/04 04:02:11;;;;;;;10.05;1.95;;;;;;;8.48;68.65;98830.63;10274836;28;20506;-61
2022/11/04 04:07:24;;;;;;;4.60;1.60;;;;;;;8.43;68.62;98832.69;10268057;28;20054;-61
2022/11/04 04:12:35;;;;;;;5.50;1.60;;;;;;;8.37;68.71;98833.13;10267388;28;20055;-61
2022/11/04 04:17:41;;;;;;;5.53;1.70;;;;;;;8.35;68.62;98841.03;10267020;28;20043;-61
2022/11/04 04:23:00;;;;;;;6.60;1.60;;;;;;;8.32;68.69;98856.06;10267009;28;20058;-61
2022/11/04 04:28:03;;;;;;;6.60;1.73;;;;;;;8.35;68.62;98868.84;10268213;28;20050;-61
2022/11/04 04:33:09;;;;;;;8.13;1.73;;;;;;;8.46;68.68;98859.41;10274717;28;20046;-61
2022/11/04 04:49:05;;;;;;;;;;;;;;;8.56;68.14;98843.97;10267789;28;20042;-61
2022/11/04 04:54:07;;;;;;;6.13;2.08;;;;;;;8.97;67.62;98831.50;10270868;28;19932;-62
2022/11/04 04:59:09;;;;;;;4.35;1.70;;;;;;;9.05;67.58;98828.34;10289787;28;20043;-62
2022/11/04 05:04:10;;;;;;;7.43;1.70;;;;;;;9.10;67.34;98831.44;10282527;28;20252;-62
2022/11/04 05:09:12;;;;;;;7.85;1.70;;;;;;;9.06;67.30;98822.16;10274151;28;20582;-61
2022/11/04 05:14:14;;;;;;;9.45;1.77;;;;;;;9.10;67.05;98816.63;10275315;28;20055;-62
2022/11/04 05:19:15;;;;;;;6.88;1.80;;;;;;;8.98;66.94;98830.53;10269757;28;20517;-62
2022/11/04 05:24:17;;;;;;;4.85;1.50;;;;;;;8.74;67.18;98811.41;10278094;28;20313;-62
2022/11/04 05:29:19;;;;;;;6.82;2.00;;;;;;;8.52;67.58;98834.69;10264655;28;20053;-62
2022/11/04 05:34:20;;;;;;;7.78;2.15;;;;;;;8.37;67.73;98838.31;10264789;28;20061;-61
2022/11/04 05:39:22;;;;;;;7.63;2.28;;;;;;;8.21;67.75;98848.97;10267191;28;20051;-62
2022/11/04 05:44:23;;;;;;;6.05;2.05;;;;;;;8.10;68.27;98853.19;10279390;28;20546;-62
2022/11/04 05:49:25;;;;;;;10.60;2.33;;;;;;;8.13;68.50;98860.81;10267083;28;20051;-62
2022/11/04 05:54:27;;;;;;;8.20;2.28;;;;;;;8.01;68.65;98855.47;10279972;28;20078;-62
2022/11/04 05:59:28;;;;;;;6.57;2.33;;;;;;;8.12;68.73;98862.56;10275248;28;20558;-62
2022/11/04 06:04:30;;;;;;;5.60;2.35;;;;;;;8.19;68.69;98870.81;10267408;28;20371;-62
2022/11/04 06:09:37;;;;;;;6.60;2.10;;;;;;;8.13;68.70;98860.81;10266605;28;20398;-61
2022/11/04 06:14:43;;;;;;;8.27;2.50;;;;;;;8.24;68.73;98863.56;10271925;28;20051;-62
2022/11/04 06:19:45;;;;;;;6.13;2.40;;;;;;;8.35;68.67;98851.47;10285456;28;20057;-61
2022/11/04 06:24:47;;;;;;;11.57;2.60;;;;;;;8.38;68.71;98876.47;10299450;28;20054;-61
2022/11/04 06:29:48;;;;;;;11.00;3.03;;;;;;;8.17;68.89;98870.09;10269845;28;20045;-61
2022/11/04 06:34:50;;;;;;;8.73;2.90;;;;;;;7.96;69.16;98867.94;10264888;28;20062;-61
2022/11/04 06:39:51;;;;;;;9.85;3.33;;;;;;;7.91;69.29;98882.22;10267773;28;20058;-62
2022/11/04 06:44:53;;;;;;;16.60;3.63;;;;;;;7.88;69.29;98898.84;10279009;28;20491;-61
2022/11/04 06:49:55;;;;;;;18.02;5.63;;;;;;;7.94;69.35;98906.25;10263822;28;20062;-61
2022/11/04 06:54:57;;;;;;;13.45;6.30;;;;;;;7.99;68.92;98905.97;10269017;28;20054;-61
2022/11/04 06:59:59;;;;;;;10.05;4.47;;;;;;;8.10;69.24;98902.66;10270403;28;20050;-61
2022/11/04 07:05:00;;;;;;;11.73;6.22;;;;;;;8.25;69.01;98906.88;10279760;28;20050;-61
2022/11/04 07:10:02;;;;;;;12.00;5.38;;;;;;;8.42;68.86;98910.03;10264580;28;20043;-61
2022/11/04 07:15:04;;;;;;;13.98;4.18;;;;;;;8.43;68.25;98916.06;10301291;28;20050;-61
2022/11/04 07:20:07;;;;;;;9.52;4.05;;;;;;;8.41;68.46;98924.00;10276259;28;20047;-61
2022/11/04 07:25:08;;;;;;;10.93;3.42;;;;;;;8.41;68.40;98944.00;10289232;28;20058;-61
2022/11/04 07:30:10;;;;;;;9.95;3.05;;;;;;;8.33;68.32;98948.88;10274934;28;20038;-62
2022/11/04 07:35:12;;;;;;;7.28;2.33;;;;;;;8.33;68.35;98952.31;10270625;28;20051;-61
2022/11/04 07:40:14;;;;;;;9.30;4.03;;;;;;;8.31;68.45;98968.97;10271924;28;20046;-62
2022/11/04 07:45:16;;;;;;;10.88;3.80;;;;;;;8.40;68.24;98969.25;10281180;28;20050;-62
2022/11/04 07:50:17;;;;;;;8.88;2.95;;;;;;;8.48;68.28;98976.53;10290068;28;20050;-61
2022/11/04 07:55:20;;;;;;;10.07;3.17;;;;;;;8.78;68.20;98970.13;10289328;28;20042;-61
2022/11/04 08:00:21;;;;;;;10.98;3.88;;;;;;;9.02;67.85;98956.31;10269757;28;20513;-61
2022/11/04 08:05:23;;;;;;;29.55;22.70;;;;;;;9.19;67.62;98959.47;10274510;28;20058;-62
2022/11/04 08:10:25;;;;;;;12.73;4.80;;;;;;;9.38;67.41;98959.81;10270716;28;20043;-62
2022/11/04 08:15:28;;;;;;;11.13;4.80;;;;;;;9.22;67.12;98969.66;10285022;28;20502;-62
2022/11/04 08:20:29;;;;;;;11.25;4.20;;;;;;;9.08;67.70;98968.94;10270081;28;20058;-62
2022/11/04 08:25:31;;;;;;;10.52;3.45;;;;;;;9.23;67.54;98952.25;10267755;28;20313;-62
2022/11/04 08:30:33;;;;;;;12.90;4.60;;;;;;;9.42;67.12;98942.19;10267679;28;20062;-62
2022/11/04 08:35:35;;;;;;;10.45;4.07;;;;;;;9.60;66.74;98949.56;10263214;28;20496;-62
2022/11/04 08:40:42;;;;;;;12.65;4.28;;;;;;;9.62;66.57;98952.06;10282723;28;20054;-62
2022/11/04 08:45:45;;;;;;;9.52;3.38;;;;;;;9.82;66.72;98945.44;10269320;28;20050;-62
2022/11/04 08:50:52;;;;;;;11.02;3.00;;;;;;;10.23;66.31;98948.47;10282093;28;20085;-62
2022/11/04 08:55:54;;;;;;;9.43;3.10;;;;;;;10.52;65.67;98955.00;10266600;28;20047;-62
2022/11/04 09:00:56;;;;;;;8.93;3.25;;;;;;;10.49;65.40;98969.13;10264420;28;20054;-61
2022/11/04 09:05:58;;;;;;;7.28;3.13;;;;;;;10.43;65.53;98958.28;10277894;28;20050;-63
2022/11/04 09:11:00;;;;;;;12.50;3.20;;;;;;;10.59;65.06;98950.13;10287811;28;20510;-62
2022/11/04 09:16:02;;;;;;;6.60;3.10;;;;;;;10.52;64.66;98953.19;10265815;28;20054;-62
2022/11/04 09:21:05;;;;;;;9.27;3.33;;;;;;;10.55;64.51;98949.53;10266010;28;20047;-62
2022/11/04 09:26:11;;;;;;;10.07;3.40;;;;;;;10.50;64.29;98957.69;10272788;28;20042;-63
2022/11/04 09:31:18;;;;;;;10.40;3.50;;;;;;;10.64;64.38;98955.84;10269836;28;20542;-62
2022/11/04 09:36:19;;;;;;;8.57;3.20;;;;;;;10.87;63.53;98955.75;10265018;28;20661;-63
2022/11/04 09:41:59;;;;;;;6.72;2.75;;;;;;;11.12;63.05;98945.13;10270724;28;20050;-63
2022/11/04 09:47:02;;;;;;;9.65;2.90;;;;;;;11.43;62.42;98940.09;10266767;28;20050;-62
2022/11/04 09:52:16;;;;;;;7.47;2.80;;;;;;;11.44;61.73;98952.25;10271869;28;20051;-63
2022/11/04 09:57:19;;;;;;;12.18;3.30;;;;;;;11.51;62.15;98951.63;10262656;28;20066;-62
2022/11/04 10:02:33;;;;;;;9.98;3.38;;;;;;;11.46;62.57;98958.19;10276328;28;20081;-62
2022/11/04 10:07:53;;;;;;;7.80;3.20;;;;;;;11.43;62.77;98953.19;10273651;28;20053;-62
2022/11/04 10:13:25;;;;;;;12.02;3.03;;;;;;;11.49;62.37;98944.84;10274756;28;20612;-62
2022/11/04 10:18:40;;;;;;;9.02;3.05;;;;;;;11.58;62.69;98954.59;10260551;28;20051;-62
2022/11/04 10:24:01;;;;;;;11.48;3.35;;;;;;;11.50;63.05;98962.25;10269699;28;20054;-62
2022/11/04 10:29:05;;;;;;;12.13;3.47;;;;;;;11.46;63.25;98955.59;10272529;28;20488;-62
2022/11/04 10:34:15;;;;;;;10.38;2.50;;;;;;;11.64;62.77;98959.38;10267148;28;20319;-62
2022/11/04 10:39:27;;;;;;;12.05;4.00;;;;;;;11.99;62.98;98958.19;10277805;28;20061;-62
2022/11/04 10:44:35;;;;;;;10.02;3.30;;;;;;;12.08;62.07;98943.50;10266175;28;20058;-62
2022/11/04 10:49:41;;;;;;;12.75;3.55;;;;;;;12.41;62.03;98945.19;10301637;28;20050;-62
2022/11/04 10:55:22;;;;;;;9.05;2.90;;;;;;;12.28;61.85;98945.38;10260940;28;20055;-62
2022/11/04 11:00:40;;;;;;;10.20;2.70;;;;;;;12.57;60.61;98954.28;10274089;28;20050;-62
2022/11/04 11:05:42;;;;;;;11.02;3.10;;;;;;;12.55;60.93;98952.75;10263437;28;20140;-62
2022/11/04 11:10:51;;;;;;;9.45;2.80;;;;;;;12.39;61.19;98953.19;10272545;28;20053;-62
2022/11/04 11:16:10;;;;;;;8.70;2.80;;;;;;;12.46;60.68;98954.34;10274082;28;20050;-62
2022/11/04 11:21:19;;;;;;;8.73;2.55;;;;;;;12.59;60.78;98947.13;10265492;28;20055;-62
2022/11/04 11:26:29;;;;;;;10.68;2.80;;;;;;;12.77;59.81;98944.75;10272608;28;20090;-63
2022/11/04 11:31:36;;;;;;;9.43;2.38;;;;;;;13.07;59.09;98936.88;10264766;28;20402;-63
2022/11/04 11:36:38;;;;;;;9.93;2.80;;;;;;;13.29;58.54;98941.13;10264392;28;20218;-63
2022/11/04 11:42:05;;;;;;;9.18;2.60;;;;;;;13.21;56.46;98938.34;10263680;28;20055;-63
2022/11/04 11:47:21;;;;;;;6.90;2.10;;;;;;;13.32;57.10;98939.06;10260335;28;20495;-63
2022/11/04 11:52:23;;;;;;;8.45;2.40;;;;;;;13.51;56.61;98933.09;10261845;28;20059;-63
2022/11/04 11:57:44;;;;;;;7.65;2.33;;;;;;;13.52;55.95;98932.09;10259931;28;20062;-62
2022/11/04 12:03:19;;;;;;;7.47;2.55;;;;;;;13.74;56.46;98937.97;10270842;28;20054;-63
2022/11/04 12:08:44;;;;;;;9.63;2.90;;;;;;;13.78;56.64;98933.25;10267760;28;20459;-63
2022/11/04 12:14:23;;;;;;;6.93;2.10;;;;;;;13.71;55.50;98937.41;10267533;28;20455;-63
2022/11/04 12:19:43;;;;;;;11.13;2.72;;;;;;;13.52;56.65;98943.44;10268381;28;20752;-62
2022/11/04 12:24:54;;;;;;;3.67;1.60;;;;;;;13.05;58.02;98949.31;10272400;28;20059;-62
2022/11/04 12:30:12;;;;;;;5.30;1.80;;;;;;;12.50;58.68;98960.16;10269742;28;20410;-62
2022/11/04 12:35:38;;;;;;;11.88;2.75;;;;;;;12.09;61.30;98979.22;10269479;28;20053;-63
2022/11/04 12:41:19;;;;;;;7.13;2.30;;;;;;;11.89;62.76;98972.16;10270459;28;20054;-62
2022/11/04 12:47:00;;;;;;;6.22;2.10;;;;;;;12.09;62.32;98977.44;10267773;28;20195;-62
2022/11/04 12:52:20;;;;;;;4.28;2.17;;;;;;;12.35;62.79;98970.13;10280343;28;20054;-62
2022/11/04 12:57:28;;;;;;;7.10;2.70;;;;;;;12.75;62.42;98960.63;10268624;28;20059;-62
2022/11/04 13:02:45;;;;;;;5.93;1.90;;;;;;;12.89;61.30;98967.31;10285924;28;20051;-63
2022/11/04 13:08:08;;;;;;;8.10;2.30;;;;;;;13.02;62.09;98972.38;10272714;28;20054;-63
2022/11/04 13:13:19;;;;;;;7.93;2.45;;;;;;;13.08;62.06;98971.84;10282373;28;20053;-62
2022/11/04 13:18:25;;;;;;;7.80;2.25;;;;;;;13.00;62.46;98974.28;10294253;28;20222;-62
2022/11/04 13:23:48;;;;;;;6.93;2.30;;;;;;;12.80;62.53;98970.72;10283821;28;20066;-63
2022/11/04 13:28:58;;;;;;;5.32;2.00;;;;;;;12.76;62.55;98978.00;10282116;28;20058;-62
2022/11/04 13:34:35;;;;;;;5.20;2.10;;;;;;;12.90;62.24;98980.31;10278875;28;20051;-62
2022/11/04 13:39:46;;;;;;;7.85;2.33;;;;;;;12.91;61.54;98987.22;10281311;28;20090;-62
2022/11/04 13:44:52;;;;;;;8.25;3.53;;;;;;;12.53;61.53;98986.97;10277056;28;20057;-61
2022/11/04 13:49:55;;;;;;;7.32;3.20;;;;;;;12.15;62.50;99003.16;10273963;28;20519;-61
2022/11/04 13:54:58;;;;;;;6.82;3.13;;;;;;;12.22;62.66;99010.53;10273783;28;20043;-62
2022/11/04 14:00:12;;;;;;;5.28;2.15;;;;;;;12.33;63.09;99024.50;10266182;28;20043;-62
2022/11/04 14:05:33;;;;;;;5.38;2.10;;;;;;;12.41;62.72;99024.69;10283941;28;20414;-62
2022/11/04 14:10:43;;;;;;;10.43;4.95;;;;;;;12.38;63.67;99030.19;10268230;28;20058;-62
2022/11/04 14:16:31;;;;;;;6.47;3.30;;;;;;;12.47;63.88;99032.06;10279469;28;20046;-62
2022/11/04 14:22:05;;;;;;;5.80;2.33;;;;;;;12.51;63.36;99036.09;10268629;28;20109;-62
2022/11/04 14:27:35;;;;;;;5.95;2.08;;;;;;;12.39;63.63;99042.34;10272700;28;20484;-62
2022/11/04 14:32:40;;;;;;;9.65;2.45;;;;;;;12.15;64.45;99049.50;10259884;28;20434;-62
2022/11/04 14:37:42;;;;;;;6.78;2.17;;;;;;;12.23;64.17;99059.41;10268734;28;20215;-62
2022/11/04 14:42:49;;;;;;;6.13;2.97;;;;;;;12.29;64.50;99065.03;10266868;28;20046;-62
2022/11/04 14:48:01;;;;;;;12.32;3.15;;;;;;;12.30;64.41;99071.91;10278926;28;20407;-62
2022/11/04 14:53:07;;;;;;;6.28;3.08;;;;;;;12.28;64.90;99079.06;10261678;28;20398;-62
2022/11/04 14:58:27;;;;;;;7.32;2.42;;;;;;;12.12;64.66;99078.59;10264326;28;20427;-63
2022/11/04 15:03:35;;;;;;;6.65;2.58;;;;;;;12.04;64.83;99088.84;10260961;28;20418;-62
2022/11/04 15:08:57;;;;;;;9.77;3.40;;;;;;;12.01;65.25;99103.03;10276012;28;20337;-63
2022/11/04 15:13:59;;;;;;;6.32;2.60;;;;;;;11.90;65.41;99104.84;10262813;28;20046;-63
2022/11/04 15:19:01;;;;;;;4.72;2.28;;;;;;;11.66;65.57;99111.97;10272692;28;20591;-62
2022/11/04 15:24:03;;;;;;;7.43;2.35;;;;;;;11.55;65.49;99125.03;10261608;28;20054;-62
2022/11/04 15:29:11;;;;;;;7.80;2.65;;;;;;;11.39;65.63;99127.16;10279182;28;20043;-62
2022/11/04 15:34:13;;;;;;;8.18;2.85;;;;;;;11.23;65.61;99133.53;10262679;28;20411;-63
2022/11/04 15:39:32;;;;;;;5.68;2.60;;;;;;;11.09;65.88;99132.94;10283965;28;20399;-63
2022/11/04 15:44:37;;;;;;;7.07;3.60;;;;;;;10.97;66.32;99137.22;10270788;28;20065;-62
2022/11/04 15:49:38;;;;;;;10.77;3.60;;;;;;;10.87;66.45;99138.03;10275634;28;20046;-63
2022/11/04 15:54:43;;;;;;;10.88;4.00;;;;;;;10.80;67.09;99148.13;10268008;28;20050;-63
2022/11/04 15:59:55;;;;;;;10.27;4.28;;;;;;;10.68;67.49;99159.47;10276429;28;20057;-62
2022/11/04 16:05:09;;;;;;;9.57;3.35;;;;;;;10.47;67.62;99155.78;10268346;28;20058;-61
2022/11/04 16:10:34;;;;;;;6.82;2.92;;;;;;;10.21;67.90;99164.63;10265292;28;20137;-61
2022/11/04 16:15:45;;;;;;;7.60;2.83;;;;;;;10.17;68.02;99176.25;10267049;28;20054;-61
2022/11/04 16:20:49;;;;;;;9.73;3.40;;;;;;;10.18;68.19;99180.50;10288470;28;20460;-61
2022/11/04 16:26:06;;;;;;;10.77;3.72;;;;;;;10.23;68.16;99181.03;10275843;28;20745;-61
2022/11/04 16:31:24;;;;;;;7.90;4.40;;;;;;;10.31;68.35;99199.63;10269459;28;20046;-62
2022/11/04 16:36:26;;;;;;;11.50;4.97;;;;;;;10.39;67.95;99189.47;10267303;28;20415;-61
2022/11/04 16:41:38;;;;;;;12.65;5.40;;;;;;;10.36;67.95;99216.66;10269222;28;20047;-61
2022/11/04 16:46:40;;;;;;;7.70;4.15;;;;;;;10.10;68.49;99224.63;10273938;28;20058;-62
2022/11/04 16:51:42;;;;;;;9.82;4.85;;;;;;;10.13;68.77;99227.88;10279592;28;20047;-62
2022/11/04 16:56:44;;;;;;;11.00;5.65;;;;;;;10.18;68.45;99238.84;10266633;28;20053;-61
2022/11/04 17:01:46;;;;;;;15.15;7.25;;;;;;;10.20;68.70;99241.34;10267175;28;20396;-62
2022/11/04 17:06:48;;;;;;;6.38;2.88;;;;;;;10.23;67.75;99241.97;10267162;28;20042;-62
2022/11/04 17:11:50;;;;;;;10.35;3.00;;;;;;;10.28;67.21;99252.09;10277956;28;20051;-62
2022/11/04 17:16:52;;;;;;;6.38;2.50;;;;;;;10.30;66.86;99255.44;10297058;28;20050;-62
2022/11/04 17:21:53;;;;;;;6.88;3.67;;;;;;;10.29;67.16;99257.25;10267259;28;20081;-61
2022/11/04 17:26:55;;;;;;;6.97;3.20;;;;;;;10.17;67.44;99270.31;10283734;28;20141;-61
2022/11/04 17:31:57;;;;;;;11.13;4.38;;;;;;;10.18;67.75;99271.97;10264436;28;20051;-62
2022/11/04 17:36:59;;;;;;;10.63;6.25;;;;;;;10.19;67.88;99277.09;10281122;28;20507;-61
2022/11/04 17:47:22;;;;;;;13.07;7.78;;;;;;;10.13;68.37;99287.13;10266021;28;20077;-62
2022/11/04 17:52:23;;;;;;;17.58;8.50;;;;;;;10.07;68.64;99291.00;10270681;28;20059;-62
2022/11/04 17:57:25;;;;;;;15.82;9.50;;;;;;;10.00;68.70;99301.94;10269231;28;20054;-62
2022/11/04 18:02:27;;;;;;;15.95;9.88;;;;;;;9.89;68.88;99310.50;10273342;28;20046;-62
2022/11/04 18:07:29;;;;;;;11.23;6.47;;;;;;;9.89;68.87;99310.50;10257842;28;20145;-61
2022/11/04 18:12:40;;;;;;;17.48;9.50;;;;;;;9.83;69.09;99317.94;10261219;28;20055;-62
2022/11/04 18:17:44;;;;;;;10.63;6.70;;;;;;;9.91;69.27;99328.72;10265506;28;20421;-62
2022/11/04 18:22:46;;;;;;;22.05;12.32;;;;;;;10.01;69.09;99335.00;10261715;28;20058;-62
2022/11/04 18:27:48;;;;;;;18.67;12.93;;;;;;;10.08;69.04;99342.31;10264398;28;20318;-62
2022/11/04 18:32:51;;;;;;;38.00;12.52;;;;;;;10.13;69.05;99347.22;10269709;28;20526;-62
2022/11/04 18:37:54;;;;;;;17.98;9.80;;;;;;;10.08;68.83;99363.22;10264410;28;20417;-62
2022/11/04 18:42:56;;;;;;;14.82;9.45;;;;;;;10.04;69.30;99374.81;10263367;28;20242;-62
2022/11/04 18:47:57;;;;;;;11.55;7.25;;;;;;;10.10;69.04;99379.63;10263246;28;20053;-61
2022/11/04 18:52:59;;;;;;;10.75;4.65;;;;;;;10.01;68.87;99382.81;10267941;28;20057;-61
2022/11/04 18:58:01;;;;;;;4.47;3.42;;;;;;;9.95;68.86;99391.06;10262932;28;20498;-62
2022/11/04 19:03:03;;;;;;;7.38;4.72;;;;;;;9.90;68.71;99389.69;10261586;28;20046;-61
2022/11/04 19:08:05;;;;;;;8.18;4.68;;;;;;;9.95;68.47;99398.09;10275891;28;20050;-62
2022/11/04 19:13:19;;;;;;;7.38;4.63;;;;;;;9.99;68.55;99405.59;10282036;28;20139;-61
2022/11/04 19:18:21;;;;;;;10.13;6.15;;;;;;;9.98;68.71;99403.94;10280049;28;20051;-61
2022/11/04 19:23:23;;;;;;;12.40;5.72;;;;;;;9.98;68.91;99405.72;10273924;28;20059;-61
2022/11/04 19:28:25;;;;;;;7.72;4.38;;;;;;;9.95;68.72;99413.75;10278820;28;20053;-62
2022/11/04 19:33:47;;;;;;;12.45;6.80;;;;;;;10.00;68.90;99427.34;10302987;28;20053;-61
2022/11/04 19:38:54;;;;;;;14.82;8.05;;;;;;;10.04;68.68;99434.03;10287462;28;20050;-62
2022/11/04 19:43:55;;;;;;;13.75;6.25;;;;;;;10.02;68.93;99438.53;10290819;28;20214;-61
2022/11/04 19:48:58;;;;;;;17.95;9.38;;;;;;;10.03;68.98;99448.91;10274434;28;20077;-62
2022/11/04 19:54:01;;;;;;;12.57;6.75;;;;;;;9.99;68.90;99447.41;10273471;28;20414;-62
2022/11/04 19:59:04;;;;;;;14.23;7.72;;;;;;;10.00;68.93;99456.94;10279118;28;20082;-62
2022/11/04 20:04:07;;;;;;;11.68;7.97;;;;;;;10.03;69.01;99458.50;10284239;28;20051;-62
2022/11/04 20:09:11;;;;;;;16.17;7.25;;;;;;;10.02;69.03;99469.88;10281061;28;20055;-62
2022/11/04 20:14:16;;;;;;;14.85;7.80;;;;;;;10.05;68.87;99475.75;10277908;28;20515;-62
2022/11/04 20:19:18;;;;;;;16.33;9.02;;;;;;;10.07;68.64;99478.28;10281233;28;20051;-62
2022/11/04 20:24:24;;;;;;;18.05;9.45;;;;;;;10.05;68.96;99483.59;10281043;28;20054;-62
2022/11/04 20:29:25;;;;;;;15.63;9.43;;;;;;;10.07;68.96;99488.72;10286339;28;20410;-62
2022/11/04 20:34:27;;;;;;;19.73;10.40;;;;;;;10.08;68.68;99483.38;10280096;28;20047;-62
2022/11/04 20:39:33;;;;;;;14.00;8.70;;;;;;;9.99;68.70;99488.38;10284127;28;20046;-62
2022/11/04 20:44:35;;;;;;;19.08;11.45;;;;;;;9.95;68.84;99502.56;10287183;28;20055;-62
2022/11/04 20:49:37;;;;;;;14.73;9.07;;;;;;;9.96;68.90;99499.00;10287371;28;20045;-62
2022/11/04 20:54:38;;;;;;;19.63;10.48;;;;;;;9.94;69.02;99506.09;10281931;28;20483;-61
2022/11/04 20:59:40;;;;;;;13.98;8.57;;;;;;;9.97;68.85;99506.75;10280090;28;20539;-61
2022/11/04 21:04:42;;;;;;;26.00;13.45;;;;;;;9.99;68.86;99519.72;10268329;28;20085;-61
2022/11/04 21:09:43;;;;;;;21.58;13.70;;;;;;;9.91;68.89;99532.44;10286018;28;20047;-61
2022/11/04 21:14:46;;;;;;;15.52;10.48;;;;;;;9.84;68.95;99541.59;10273238;28;20047;-62
2022/11/04 21:19:47;;;;;;;19.05;10.82;;;;;;;9.79;69.08;99551.50;10281575;28;20055;-61
2022/11/04 21:24:49;;;;;;;10.48;6.90;;;;;;;9.67;69.27;99558.28;10288973;28;20165;-61
2022/11/04 21:29:51;;;;;;;14.00;8.77;;;;;;;9.69;69.50;99566.88;10270956;28;20522;-61
2022/11/04 21:34:52;;;;;;;12.82;8.20;;;;;;;9.66;69.47;99572.31;10265579;28;20058;-61
2022/11/04 21:39:54;;;;;;;11.55;6.38;;;;;;;9.65;69.31;99568.81;10302149;28;20491;-61
2022/11/04 21:44:56;;;;;;;10.57;6.68;;;;;;;9.61;69.30;99577.75;10287378;28;20054;-62
2022/11/04 21:49:57;;;;;;;15.07;6.60;;;;;;;9.56;69.50;99579.00;10268665;28;20054;-61
2022/11/04 21:54:59;;;;;;;11.35;6.07;;;;;;;9.57;69.71;99588.47;10264713;28;20506;-61
2022/11/04 22:00:05;;;;;;;12.68;6.78;;;;;;;9.58;69.56;99585.78;10266842;28;20058;-61
2022/11/04 22:05:10;;;;;;;14.18;10.48;;;;;;;9.51;69.69;99589.69;10270868;28;20073;-62
2022/11/04 22:10:12;;;;;;;11.77;8.38;;;;;;;9.58;69.60;99595.41;10279224;28;20051;-61
2022/11/04 22:15:56;;;;;;;18.05;12.00;;;;;;;9.54;69.73;99602.56;10283968;28;20066;-62
2022/11/04 22:20:36;;;;;;;17.13;10.25;;;;;;;9.65;69.61;99602.75;10289874;28;20458;-61
2022/11/04 22:25:37;;;;;;;19.33;11.07;;;;;;;9.74;69.41;99611.00;10277508;28;20426;-62
2022/11/04 22:30:39;;;;;;;20.13;12.00;;;;;;;9.80;69.19;99610.63;10281040;28;20369;-61
2022/11/04 22:35:45;;;;;;;20.75;11.68;;;;;;;9.82;69.19;99613.97;10265174;28;20078;-61
2022/11/04 22:40:53;;;;;;;20.52;12.90;;;;;;;9.80;69.20;99614.06;10276066;28;20054;-61
2022/11/04 22:45:56;;;;;;;21.33;10.40;;;;;;;9.77;68.91;99616.03;10265129;28;20046;-61
2022/11/04 22:50:58;;;;;;;27.67;14.00;;;;;;;9.74;69.26;99606.63;10273055;28;20043;-61
2022/11/04 22:56:01;;;;;;;27.02;15.15;;;;;;;9.76;69.12;99619.56;10276211;28;20502;-61
2022/11/04 23:01:06;;;;;;;17.73;13.38;;;;;;;9.68;69.07;99617.44;10268543;28;20042;-61
2022/11/04 23:06:09;;;;;;;29.15;15.80;;;;;;;9.63;69.11;99630.72;10262838;28;20134;-61
2022/11/04 23:32:39;;;;;;;35.97;21.42;;;;;;;9.57;69.46;99648.53;10295332;28;20478;-61
2022/11/04 23:37:41;;;;;;;38.80;25.50;;;;;;;9.63;69.50;99646.41;10263981;28;20054;-61
2022/11/04 23:42:42;;;;;;;28.15;18.77;;;;;;;9.66;69.33;99658.47;10273125;28;20043;-61
